createdAt,value
2022-11-21T00:01:11.974Z,9.63
2022-11-21T00:03:38.791Z,9.62
2022-11-21T00:06:05.413Z,9.71
2022-11-21T00:08:32.041Z,9.70
2022-11-21T00:11:01.851Z,9.65
2022-11-21T00:13:28.344Z,9.62
2022-11-21T00:15:55.068Z,9.52
2022-11-21T00:18:21.726Z,9.48
2022-11-21T00:20:48.403Z,9.46
2022-11-21T00:23:15.108Z,9.38
2022-11-21T00:25:41.765Z,9.38
2022-11-21T00:28:08.947Z,9.47
2022-11-21T00:30:35.875Z,9.48
2022-11-21T00:33:02.517Z,9.41
2022-11-21T00:35:31.433Z,9.43
2022-11-21T00:37:58.069Z,9.44
2022-11-21T00:40:24.641Z,9.40
2022-11-21T00:42:51.255Z,9.46
2022-11-21T00:45:23.854Z,9.39
2022-11-21T00:47:51.003Z,9.25
2022-11-21T00:50:17.699Z,9.31
2022-11-21T00:52:44.334Z,9.38
2022-11-21T00:55:10.978Z,9.43
2022-11-21T00:57:37.541Z,9.42
2022-11-21T01:00:05.803Z,9.39
2022-11-21T01:02:33.052Z,9.27
2022-11-21T01:04:59.792Z,9.27
2022-11-21T01:07:26.635Z,9.30
2022-11-21T01:09:53.297Z,9.18
2022-11-21T01:12:19.911Z,9.23
2022-11-21T01:14:46.520Z,9.29
2022-11-21T01:17:13.385Z,9.18
2022-11-21T01:19:40.046Z,9.11
2022-11-21T01:22:06.635Z,9.14
2022-11-21T01:24:33.330Z,9.13
2022-11-21T01:27:00.007Z,9.17
2022-11-21T01:29:27.941Z,9.17
2022-11-21T01:31:54.576Z,9.03
2022-11-21T01:34:21.322Z,8.85
2022-11-21T01:36:47.970Z,8.64
2022-11-21T01:39:14.603Z,8.62
2022-11-21T01:41:43.789Z,8.67
2022-11-21T01:44:17.832Z,8.68
2022-11-21T01:46:44.679Z,8.65
2022-11-21T01:49:16.590Z,8.61
2022-11-21T01:51:52.507Z,8.56
2022-11-21T01:54:33.058Z,8.63
2022-11-21T01:57:29.917Z,8.68
2022-11-21T02:00:05.886Z,8.80
2022-11-21T02:02:44.234Z,8.79
2022-11-21T02:05:16.205Z,8.70
2022-11-21T02:07:46.308Z,8.69
2022-11-21T02:10:14.425Z,8.69
2022-11-21T02:12:47.406Z,8.70
2022-11-21T02:15:14.797Z,8.73
2022-11-21T02:17:41.386Z,8.67
2022-11-21T02:20:11.374Z,8.67
2022-11-21T02:23:02.663Z,8.65
2022-11-21T02:25:31.181Z,8.64
2022-11-21T02:28:01.676Z,8.67
2022-11-21T02:30:32.729Z,8.73
2022-11-21T02:32:59.267Z,8.79
2022-11-21T02:35:26.207Z,8.92
2022-11-21T02:38:16.842Z,9.06
2022-11-21T02:40:52.137Z,9.15
2022-11-21T02:43:28.515Z,9.24
2022-11-21T02:45:55.199Z,9.24
2022-11-21T02:48:21.853Z,9.26
2022-11-21T02:50:48.567Z,9.22
2022-11-21T02:53:18.719Z,9.27
2022-11-21T02:55:45.751Z,9.30
2022-11-21T02:58:13.050Z,9.31
2022-11-21T03:00:41.232Z,9.35
2022-11-21T03:03:08.753Z,9.34
2022-11-21T03:05:35.929Z,9.38
2022-11-21T03:08:03.471Z,9.43
2022-11-21T03:10:30.298Z,9.46
2022-11-21T03:13:01.054Z,9.45
2022-11-21T03:15:30.550Z,9.44
2022-11-21T03:17:57.815Z,9.48
2022-11-21T03:20:24.899Z,9.45
2022-11-21T03:22:53.389Z,9.40
2022-11-21T03:25:20.360Z,9.43
2022-11-21T03:27:50.067Z,9.42
2022-11-21T03:30:16.707Z,9.43
2022-11-21T03:32:43.492Z,9.37
2022-11-21T03:35:10.150Z,9.34
2022-11-21T03:37:36.760Z,9.30
2022-11-21T03:40:04.115Z,9.25
2022-11-21T03:42:30.643Z,9.19
2022-11-21T03:44:57.207Z,9.12
2022-11-21T03:47:24.711Z,9.05
2022-11-21T03:49:51.371Z,9.09
2022-11-21T03:52:18.032Z,9.11
2022-11-21T03:54:44.632Z,9.03
2022-11-21T03:57:11.171Z,8.97
2022-11-21T03:59:37.777Z,8.95
2022-11-21T04:02:04.499Z,9.08
2022-11-21T04:04:31.096Z,9.22
2022-11-21T04:06:57.762Z,9.22
2022-11-21T04:09:24.342Z,9.14
2022-11-21T04:11:50.980Z,9.11
2022-11-21T04:14:17.768Z,9.08
2022-11-21T04:16:44.316Z,9.06
2022-11-21T04:19:10.894Z,8.97
2022-11-21T04:21:37.499Z,8.89
2022-11-21T04:24:04.445Z,8.86
2022-11-21T04:26:30.955Z,8.81
2022-11-21T04:28:57.999Z,8.86
2022-11-21T04:31:24.585Z,8.97
2022-11-21T04:33:51.076Z,9.00
2022-11-21T04:36:18.354Z,9.04
2022-11-21T04:38:44.920Z,9.05
2022-11-21T04:41:11.511Z,9.13
2022-11-21T04:43:38.241Z,9.17
2022-11-21T04:46:04.904Z,9.18
2022-11-21T04:48:32.597Z,9.24
2022-11-21T04:50:59.868Z,9.25
2022-11-21T04:53:26.431Z,9.31
2022-11-21T04:55:53.012Z,9.34
2022-11-21T04:58:19.620Z,9.37
2022-11-21T05:00:46.196Z,9.38
2022-11-21T05:03:12.763Z,9.37
2022-11-21T05:05:39.343Z,9.31
2022-11-21T05:08:05.912Z,9.25
2022-11-21T05:10:52.537Z,9.20
2022-11-21T05:13:22.164Z,9.23
2022-11-21T05:15:51.642Z,9.29
2022-11-21T05:18:19.988Z,9.35
2022-11-21T05:20:47.009Z,9.41
2022-11-21T05:23:13.996Z,9.44
2022-11-21T05:25:40.713Z,9.45
2022-11-21T05:28:07.329Z,9.43
2022-11-21T05:30:34.045Z,9.42
2022-11-21T05:33:00.699Z,9.43
2022-11-21T05:35:27.211Z,9.45
2022-11-21T05:37:57.535Z,9.44
2022-11-21T05:40:25.361Z,9.46
2022-11-21T05:43:10.503Z,9.49
2022-11-21T05:45:37.089Z,9.48
2022-11-21T05:48:07.853Z,9.46
2022-11-21T05:50:37.671Z,9.45
2022-11-21T05:53:04.663Z,9.46
2022-11-21T05:55:33.963Z,9.41
2022-11-21T05:58:01.124Z,9.42
2022-11-21T06:00:28.983Z,9.43
2022-11-21T06:03:14.658Z,9.43
2022-11-21T06:05:41.442Z,9.38
2022-11-21T06:08:08.077Z,9.41
2022-11-21T06:10:34.699Z,9.47
2022-11-21T06:13:01.816Z,9.49
2022-11-21T06:15:28.948Z,9.49
2022-11-21T06:17:55.495Z,9.48
2022-11-21T06:20:22.072Z,9.44
2022-11-21T06:22:48.807Z,9.47
2022-11-21T06:25:15.480Z,9.52
2022-11-21T06:27:42.091Z,9.46
2022-11-21T06:30:09.108Z,9.45
2022-11-21T06:32:38.118Z,9.47
2022-11-21T06:35:05.275Z,9.52
2022-11-21T06:37:31.958Z,9.55
2022-11-21T06:39:59.263Z,9.61
2022-11-21T06:42:25.921Z,9.59
2022-11-21T06:44:53.320Z,9.60
2022-11-21T06:47:20.112Z,9.55
2022-11-21T06:49:47.098Z,9.54
2022-11-21T06:52:13.841Z,9.57
2022-11-21T06:54:40.537Z,9.55
2022-11-21T06:57:07.303Z,9.57
2022-11-21T06:59:33.896Z,9.57
2022-11-21T07:02:00.913Z,9.57
2022-11-21T07:04:28.002Z,9.61
2022-11-21T07:06:54.737Z,9.66
2022-11-21T07:09:36.644Z,9.69
2022-11-21T07:12:22.035Z,9.71
2022-11-21T07:14:48.643Z,9.70
2022-11-21T07:17:15.385Z,9.71
2022-11-21T07:19:42.118Z,9.70
2022-11-21T07:22:09.137Z,9.70
2022-11-21T07:24:35.753Z,9.72
2022-11-21T07:27:02.803Z,9.75
2022-11-21T07:29:29.864Z,9.75
2022-11-21T07:31:56.868Z,9.73
2022-11-21T07:34:23.564Z,9.74
2022-11-21T07:36:50.155Z,9.69
2022-11-21T07:39:16.881Z,9.64
2022-11-21T07:41:43.456Z,9.58
2022-11-21T07:44:10.028Z,9.47
2022-11-21T07:46:36.595Z,9.42
2022-11-21T07:49:03.858Z,9.46
2022-11-21T07:51:30.762Z,9.53
2022-11-21T07:53:57.555Z,9.50
2022-11-21T07:56:26.391Z,9.52
2022-11-21T07:58:53.264Z,9.50
2022-11-21T08:01:20.107Z,9.50
2022-11-21T08:03:46.957Z,9.49
2022-11-21T08:06:13.629Z,9.49
2022-11-21T08:08:40.356Z,9.44
2022-11-21T08:11:08.056Z,9.38
2022-11-21T08:13:35.652Z,9.38
2022-11-21T08:16:03.999Z,9.45
2022-11-21T08:18:30.917Z,9.60
2022-11-21T08:21:00.190Z,9.63
2022-11-21T08:23:26.821Z,9.74
2022-11-21T08:25:53.561Z,9.96
2022-11-21T08:28:20.331Z,10.13
2022-11-21T08:30:47.096Z,10.30
2022-11-21T08:33:13.708Z,10.40
2022-11-21T08:35:40.354Z,10.40
2022-11-21T08:38:06.982Z,10.35
2022-11-21T08:40:34.873Z,10.34
2022-11-21T08:43:06.743Z,10.47
2022-11-21T08:45:35.399Z,10.54
2022-11-21T08:48:02.995Z,10.54
2022-11-21T08:50:29.886Z,10.49
2022-11-21T08:53:01.387Z,10.45
2022-11-21T08:55:28.365Z,10.49
2022-11-21T08:57:54.934Z,10.62
2022-11-21T09:00:21.610Z,10.69
2022-11-21T09:02:48.274Z,10.98
2022-11-21T09:05:17.460Z,11.34
2022-11-21T09:07:44.163Z,11.68
2022-11-21T09:10:10.819Z,11.97
2022-11-21T09:12:37.485Z,12.09
2022-11-21T09:15:23.157Z,12.25
2022-11-21T09:18:04.983Z,12.29
2022-11-21T09:20:34.153Z,12.08
2022-11-21T09:23:14.901Z,11.84
2022-11-21T09:25:42.441Z,11.69
2022-11-21T09:28:11.034Z,11.62
2022-11-21T09:30:39.100Z,11.38
2022-11-21T09:33:16.846Z,11.31
2022-11-21T09:35:43.864Z,11.37
2022-11-21T09:38:10.851Z,11.56
2022-11-21T09:40:43.951Z,11.94
2022-11-21T09:43:45.273Z,12.14
2022-11-21T09:46:16.369Z,11.92
2022-11-21T09:49:00.538Z,11.58
2022-11-21T09:51:31.060Z,11.36
2022-11-21T09:54:11.877Z,11.21
2022-11-21T09:56:41.691Z,11.22
2022-11-21T09:59:32.703Z,11.27
2022-11-21T10:01:59.777Z,11.09
2022-11-21T10:04:27.623Z,11.00
2022-11-21T10:07:03.201Z,10.92
2022-11-21T10:09:38.775Z,10.86
2022-11-21T10:12:39.968Z,10.83
2022-11-21T10:15:27.909Z,10.83
2022-11-21T10:18:25.382Z,10.82
2022-11-21T10:21:19.317Z,10.86
2022-11-21T10:23:59.731Z,11.06
2022-11-21T10:27:01.076Z,11.49
2022-11-21T10:29:35.019Z,11.59
2022-11-21T10:32:15.378Z,11.60
2022-11-21T10:34:46.139Z,11.43
2022-11-21T10:37:34.840Z,11.37
2022-11-21T10:40:45.944Z,11.33
2022-11-21T10:44:02.330Z,11.48
2022-11-21T10:46:28.995Z,11.65
2022-11-21T10:48:59.476Z,11.79
2022-11-21T10:51:32.142Z,12.15
2022-11-21T10:54:29.379Z,12.56
2022-11-21T10:57:01.967Z,12.66
2022-11-21T10:59:31.301Z,12.75
2022-11-21T11:02:02.265Z,12.82
2022-11-21T11:04:36.865Z,13.03
2022-11-21T11:07:29.213Z,13.34
2022-11-21T11:10:42.495Z,13.67
2022-11-21T11:13:46.518Z,14.05
2022-11-21T11:16:17.482Z,15.07
2022-11-21T11:18:54.350Z,17.91
2022-11-21T11:21:23.621Z,20.23
2022-11-21T11:23:52.112Z,20.84
2022-11-21T11:26:30.432Z,22.35
2022-11-21T11:29:20.859Z,23.82
2022-11-21T11:31:59.837Z,24.67
2022-11-21T11:34:39.264Z,25.64
2022-11-21T11:37:37.130Z,25.64
2022-11-21T11:40:30.376Z,24.96
2022-11-21T11:43:21.907Z,25.55
2022-11-21T11:46:10.283Z,27.53
2022-11-21T11:49:11.077Z,28.88
2022-11-21T11:51:35.098Z,29.81
2022-11-21T11:54:08.942Z,29.92
2022-11-21T11:56:38.760Z,29.62
2022-11-21T11:59:19.704Z,28.52
2022-11-21T12:01:58.376Z,25.67
2022-11-21T12:04:29.527Z,24.24
2022-11-21T12:10:32.029Z,19.24
2022-11-21T12:13:14.129Z,17.87
2022-11-21T12:15:49.927Z,17.19
2022-11-21T12:18:19.664Z,16.67
2022-11-21T12:20:54.369Z,15.94
2022-11-21T12:23:23.967Z,15.15
2022-11-21T12:26:14.059Z,14.87
2022-11-21T12:29:24.377Z,14.77
2022-11-21T12:32:10.218Z,14.74
2022-11-21T12:34:58.306Z,14.85
2022-11-21T12:37:43.828Z,14.97
2022-11-21T12:40:35.100Z,14.80
2022-11-21T12:43:23.530Z,14.65
2022-11-21T12:45:58.050Z,14.88
2022-11-21T12:49:09.704Z,15.45
2022-11-21T12:52:16.894Z,15.41
2022-11-21T12:54:52.692Z,15.12
2022-11-21T12:57:22.133Z,14.89
2022-11-21T13:00:12.053Z,14.67
2022-11-21T13:03:06.121Z,14.35
2022-11-21T13:05:38.946Z,14.14
2022-11-21T13:08:10.546Z,13.95
2022-11-21T13:10:41.760Z,13.94
2022-11-21T13:13:27.747Z,13.94
2022-11-21T13:16:02.934Z,13.81
2022-11-21T13:18:36.075Z,13.74
2022-11-21T13:21:02.776Z,13.57
2022-11-21T13:23:42.330Z,13.48
2022-11-21T13:26:31.860Z,13.48
2022-11-21T13:29:10.233Z,13.31
2022-11-21T13:31:37.605Z,13.22
2022-11-21T13:34:05.504Z,13.37
2022-11-21T13:36:32.122Z,13.58
2022-11-21T13:38:58.812Z,13.80
2022-11-21T13:41:53.342Z,13.98
2022-11-21T13:44:32.150Z,14.06
2022-11-21T13:47:05.126Z,13.94
2022-11-21T13:49:44.631Z,13.86
2022-11-21T13:52:20.345Z,13.86
2022-11-21T13:54:49.986Z,13.91
2022-11-21T13:57:32.899Z,13.98
2022-11-21T14:00:20.360Z,13.87
2022-11-21T14:02:56.677Z,13.65
2022-11-21T14:05:46.044Z,13.24
2022-11-21T14:08:14.577Z,12.94
2022-11-21T14:10:42.880Z,12.80
2022-11-21T14:13:21.424Z,12.70
2022-11-21T14:16:04.508Z,12.51
2022-11-21T14:18:32.747Z,12.32
2022-11-21T14:21:01.797Z,12.21
2022-11-21T14:23:35.166Z,12.18
2022-11-21T14:26:14.244Z,12.03
2022-11-21T14:28:42.320Z,11.93
2022-11-21T14:31:12.344Z,11.95
2022-11-21T14:33:39.826Z,11.86
2022-11-21T14:36:08.569Z,11.81
2022-11-21T14:39:29.120Z,11.91
2022-11-21T14:41:49.677Z,11.83
2022-11-21T14:44:18.123Z,11.89
2022-11-21T14:46:47.415Z,11.90
2022-11-21T14:49:14.526Z,11.85
2022-11-21T14:51:52.764Z,11.74
2022-11-21T14:54:26.190Z,11.72
2022-11-21T14:57:03.034Z,11.69
2022-11-21T14:59:38.669Z,11.64
2022-11-21T15:02:19.797Z,11.38
2022-11-21T15:04:52.560Z,11.29
2022-11-21T15:07:31.752Z,11.24
2022-11-21T15:10:28.703Z,11.16
2022-11-21T15:12:59.624Z,11.02
2022-11-21T15:15:34.544Z,10.95
2022-11-21T15:20:59.738Z,11.03
2022-11-21T15:23:36.846Z,11.10
2022-11-21T15:26:06.227Z,11.06
2022-11-21T15:28:36.587Z,10.95
2022-11-21T15:31:20.020Z,10.98
2022-11-21T15:34:19.099Z,11.01
2022-11-21T15:36:40.654Z,10.95
2022-11-21T15:39:21.844Z,10.89
2022-11-21T15:41:55.425Z,10.84
2022-11-21T15:44:23.013Z,10.81
2022-11-21T15:46:53.125Z,10.85
2022-11-21T15:49:32.916Z,10.83
2022-11-21T15:52:13.476Z,10.75
2022-11-21T15:54:43.973Z,10.68
2022-11-21T15:57:11.652Z,10.63
2022-11-21T15:59:43.480Z,10.50
2022-11-21T16:02:13.667Z,10.40
2022-11-21T16:04:41.441Z,10.25
2022-11-21T16:07:08.449Z,10.26
2022-11-21T16:09:40.194Z,10.22
2022-11-21T16:12:08.846Z,10.12
2022-11-21T16:14:38.581Z,10.12
2022-11-21T16:17:05.581Z,10.10
2022-11-21T16:19:32.868Z,9.84
2022-11-21T16:22:00.176Z,9.84
2022-11-21T16:24:27.203Z,9.86
2022-11-21T16:27:01.886Z,9.84
2022-11-21T16:29:31.611Z,9.84
2022-11-21T16:32:04.069Z,9.79
2022-11-21T16:34:34.007Z,9.71
2022-11-21T16:37:07.267Z,9.73
2022-11-21T16:39:37.821Z,9.68
2022-11-21T16:42:04.867Z,9.65
2022-11-21T16:44:32.270Z,9.49
2022-11-21T16:47:06.632Z,9.50
2022-11-21T16:49:41.108Z,9.55
2022-11-21T16:52:08.211Z,9.61
2022-11-21T16:54:38.933Z,9.51
2022-11-21T16:57:07.263Z,9.54
2022-11-21T16:59:37.150Z,9.54
2022-11-21T17:02:04.268Z,9.51
2022-11-21T17:04:32.266Z,9.55
2022-11-21T17:07:05.102Z,9.58
2022-11-21T17:09:32.170Z,9.60
2022-11-21T17:12:01.883Z,9.61
2022-11-21T17:14:28.887Z,9.57
2022-11-21T17:17:01.294Z,9.44
2022-11-21T17:19:28.511Z,9.44
2022-11-21T17:21:56.121Z,9.38
2022-11-21T17:24:23.525Z,9.42
2022-11-21T17:26:50.335Z,9.33
2022-11-21T17:29:17.199Z,9.41
2022-11-21T17:31:44.030Z,9.45
2022-11-21T17:34:10.773Z,9.47
2022-11-21T17:36:37.450Z,9.54
2022-11-21T17:39:06.328Z,9.54
2022-11-21T17:41:33.249Z,9.47
2022-11-21T17:44:02.765Z,9.58
2022-11-21T17:46:35.316Z,9.50
2022-11-21T17:49:02.210Z,9.53
2022-11-21T17:51:33.570Z,9.60
2022-11-21T17:54:01.523Z,9.55
2022-11-21T17:56:32.407Z,9.64
2022-11-21T17:59:28.459Z,9.62
2022-11-21T18:01:56.530Z,9.51
2022-11-21T18:04:23.491Z,9.55
2022-11-21T18:06:50.254Z,9.58
2022-11-21T18:09:17.384Z,9.60
2022-11-21T18:11:46.212Z,9.62
2022-11-21T18:14:16.126Z,9.75
2022-11-21T18:16:49.342Z,9.81
2022-11-21T18:19:23.436Z,9.84
2022-11-21T18:21:50.119Z,9.92
2022-11-21T18:24:17.812Z,9.87
2022-11-21T18:26:44.918Z,9.72
2022-11-21T18:31:58.984Z,9.44
2022-11-21T18:34:25.730Z,9.48
2022-11-21T18:36:52.377Z,9.60
2022-11-21T18:39:23.190Z,9.60
2022-11-21T18:41:50.910Z,9.65
2022-11-21T18:44:22.248Z,9.61
2022-11-21T18:46:49.887Z,9.63
2022-11-21T18:49:16.907Z,9.68
2022-11-21T18:51:48.498Z,9.69
2022-11-21T18:54:15.908Z,9.68
2022-11-21T18:56:43.381Z,9.70
2022-11-21T18:59:10.437Z,9.72
2022-11-21T19:01:40.106Z,9.75
2022-11-21T19:04:16.168Z,9.67
2022-11-21T19:06:43.329Z,9.67
2022-11-21T19:09:12.612Z,9.49
2022-11-21T19:11:42.267Z,9.38
2022-11-21T19:14:11.138Z,9.41
2022-11-21T19:16:37.868Z,9.30
2022-11-21T19:21:57.867Z,9.16
2022-11-21T19:24:25.472Z,9.20
2022-11-21T19:26:58.030Z,9.20
2022-11-21T19:29:24.990Z,9.14
2022-11-21T19:31:52.098Z,9.07
2022-11-21T19:34:18.780Z,9.21
2022-11-21T19:36:50.746Z,9.22
2022-11-21T19:39:31.548Z,9.17
2022-11-21T19:41:59.546Z,9.19
2022-11-21T19:44:26.351Z,9.34
2022-11-21T19:46:56.159Z,9.49
2022-11-21T19:49:29.812Z,9.48
2022-11-21T19:52:08.752Z,9.36
2022-11-21T19:54:42.330Z,9.48
2022-11-21T19:57:13.911Z,9.74
2022-11-21T19:59:46.806Z,9.91
2022-11-21T20:02:19.622Z,10.01
2022-11-21T20:04:51.938Z,10.07
2022-11-21T20:07:26.253Z,10.09
2022-11-21T20:09:53.750Z,10.03
2022-11-21T20:12:20.624Z,10.03
2022-11-21T20:14:50.099Z,9.93
2022-11-21T20:17:17.487Z,9.75
2022-11-21T20:19:50.282Z,9.70
2022-11-21T20:22:21.899Z,9.67
2022-11-21T20:24:51.928Z,9.67
2022-11-21T20:27:21.556Z,9.64
2022-11-21T20:29:50.720Z,9.70
2022-11-21T20:32:33.233Z,9.67
2022-11-21T20:35:03.311Z,9.68
2022-11-21T20:37:33.734Z,9.74
2022-11-21T20:40:06.816Z,9.67
2022-11-21T20:42:37.685Z,9.61
2022-11-21T20:46:07.204Z,9.54
2022-11-21T20:48:10.541Z,9.48
2022-11-21T20:51:42.261Z,9.41
2022-11-21T20:53:52.328Z,9.31
2022-11-21T20:56:17.527Z,9.21
2022-11-21T20:58:45.694Z,9.07
2022-11-21T21:01:18.216Z,8.91
2022-11-21T21:03:45.583Z,8.81
2022-11-21T21:06:19.716Z,8.82
2022-11-21T21:08:53.716Z,8.70
2022-11-21T21:11:50.320Z,8.64
2022-11-21T21:14:10.379Z,8.59
2022-11-21T21:16:39.761Z,8.46
2022-11-21T21:19:06.800Z,8.44
2022-11-21T21:21:35.147Z,8.43
2022-11-21T21:24:12.373Z,8.41
2022-11-21T21:26:44.956Z,8.44
2022-11-21T21:29:22.110Z,8.62
2022-11-21T21:31:52.019Z,8.66
2022-11-21T21:34:21.691Z,8.72
2022-11-21T21:36:49.411Z,8.74
2022-11-21T21:39:16.342Z,8.64
2022-11-21T21:41:47.359Z,8.65
2022-11-21T21:44:17.914Z,8.59
2022-11-21T21:46:45.468Z,8.67
2022-11-21T21:49:12.816Z,8.74
2022-11-21T21:51:40.178Z,8.70
2022-11-21T21:54:13.172Z,8.79
2022-11-21T21:56:39.811Z,8.82
2022-11-21T21:59:10.121Z,8.80
2022-11-21T22:01:39.104Z,8.67
2022-11-21T22:04:09.424Z,8.53
2022-11-21T22:06:38.373Z,8.62
2022-11-21T22:09:05.076Z,8.66
2022-11-21T22:11:35.552Z,8.67
2022-11-21T22:14:05.933Z,8.79
2022-11-21T22:16:33.228Z,8.87
2022-11-21T22:19:03.020Z,8.88
2022-11-21T22:21:32.748Z,8.88
2022-11-21T22:24:25.912Z,8.79
2022-11-21T22:26:56.490Z,8.66
2022-11-21T22:29:25.967Z,8.67
2022-11-21T22:31:52.793Z,8.61
2022-11-21T22:34:19.616Z,8.47
2022-11-21T22:36:47.021Z,8.36
2022-11-21T22:39:14.343Z,8.20
2022-11-21T22:41:41.490Z,8.12
2022-11-21T22:44:11.249Z,8.00
2022-11-21T22:46:39.060Z,8.03
2022-11-21T22:49:06.012Z,8.05
2022-11-21T22:51:32.681Z,8.06
2022-11-21T22:53:59.943Z,8.01
2022-11-21T22:56:29.759Z,7.99
2022-11-21T22:58:56.793Z,8.06
2022-11-21T23:01:26.025Z,8.14
2022-11-21T23:03:53.564Z,8.40
2022-11-21T23:06:24.074Z,8.47
2022-11-21T23:08:52.417Z,8.62
2022-11-21T23:11:22.901Z,8.60
2022-11-21T23:13:53.411Z,8.62
2022-11-21T23:16:21.182Z,8.67
2022-11-21T23:18:48.399Z,8.66
2022-11-21T23:21:15.448Z,8.74
2022-11-21T23:23:44.013Z,8.89
2022-11-21T23:26:12.199Z,8.77
2022-11-21T23:28:39.279Z,8.63
2022-11-21T23:31:09.225Z,8.63
2022-11-21T23:33:36.337Z,8.61
2022-11-21T23:36:02.973Z,8.74
2022-11-21T23:38:33.273Z,8.93
2022-11-21T23:41:00.142Z,8.99
2022-11-21T23:43:27.367Z,9.17
2022-11-21T23:45:57.081Z,9.14
2022-11-21T23:48:26.708Z,9.18
2022-11-21T23:50:58.931Z,9.41
2022-11-21T23:53:27.537Z,9.27
2022-11-21T23:55:54.299Z,9.19
2022-11-21T23:58:21.263Z,8.99
